Time;durP1;ratioP1;P1;durP2;ratioP2;P2;SDS_P1;SDS_P2;PMS_P1;PMS_P2;Temp;Humidity;BMP_temperature;BMP_pressure;BME280_temperature;BME280_humidity;BME280_pressure;Samples;Min_cycle;Max_cycle;Signal;HPM_P1;HPM_P2
2022/12/02 00:09:22;;;;;;;3.10;3.00;;;;;;;2.07;63.88;101219.75;18429367;32;20086;-59
2022/12/02 00:19:25;;;;;;;0.80;0.80;;;;;;;2.29;63.77;101219.84;18428742;32;20093;-58
2022/12/02 00:29:30;;;;;;;2.65;2.47;;;;;;;2.35;63.64;101212.41;18428089;32;20119;-58
2022/12/02 00:39:33;;;;;;;0.88;0.88;;;;;;;2.30;64.65;101214.78;18429126;32;20101;-58
2022/12/02 00:49:37;;;;;;;1.10;1.10;;;;;;;1.69;67.67;101228.28;18427494;32;20089;-58
2022/12/02 00:59:40;;;;;;;1.00;1.00;;;;;;;2.46;65.30;101218.00;18424047;32;80641;-58
2022/12/02 01:09:45;;;;;;;2.50;2.30;;;;;;;2.61;65.69;101210.97;18427647;32;20108;-58
2022/12/02 01:19:48;;;;;;;1.17;1.12;;;;;;;2.89;65.24;101204.41;18425854;32;20408;-58
2022/12/02 01:29:53;;;;;;;0.55;0.55;;;;;;;2.93;65.42;101210.59;18424901;32;20089;-58
2022/12/02 01:39:56;;;;;;;2.55;2.03;;;;;;;3.09;65.38;101199.19;18411502;32;20140;-59
2022/12/02 01:50:01;;;;;;;1.67;1.45;;;;;;;3.07;65.90;101195.69;18431681;32;20477;-58
2022/12/02 02:00:06;;;;;;;1.75;1.65;;;;;;;3.35;65.23;101186.47;18432547;32;20093;-58
2022/12/02 02:10:10;;;;;;;0.70;0.70;;;;;;;3.31;65.40;101189.75;18433933;32;20144;-58
2022/12/02 02:20:19;;;;;;;0.60;0.60;;;;;;;3.37;65.15;101187.41;18432283;32;20111;-59
2022/12/02 02:30:24;;;;;;;2.72;2.55;;;;;;;3.55;64.86;101192.41;18431994;32;20093;-59
2022/12/02 02:40:28;;;;;;;0.55;0.55;;;;;;;3.53;65.03;101181.16;18431762;32;20107;-59
2022/12/02 02:50:33;;;;;;;3.37;3.12;;;;;;;3.33;65.83;101189.00;18432385;32;20114;-59
2022/12/02 03:00:36;;;;;;;3.17;3.00;;;;;;;3.39;66.30;101188.34;18429741;32;20093;-59
2022/12/02 03:10:41;;;;;;;0.60;0.60;;;;;;;3.74;65.17;101196.59;18430605;32;20089;-59
2022/12/02 03:20:44;;;;;;;4.07;3.83;;;;;;;3.73;65.37;101199.13;18430635;32;20097;-59
2022/12/02 03:30:49;;;;;;;1.90;1.80;;;;;;;3.74;65.44;101187.97;18430208;32;20113;-59
2022/12/02 03:40:53;;;;;;;3.05;1.37;;;;;;;3.82;65.05;101183.13;18430131;32;20498;-59
2022/12/02 03:50:58;;;;;;;2.15;2.05;;;;;;;3.72;65.46;101175.03;18428940;32;20107;-60
2022/12/02 04:01:01;;;;;;;4.82;4.45;;;;;;;3.74;65.48;101173.38;18426417;32;20101;-57
2022/12/02 04:11:06;;;;;;;0.90;0.90;;;;;;;3.85;65.36;101185.81;18425953;32;20097;-60
2022/12/02 04:21:09;;;;;;;1.08;1.08;;;;;;;3.79;65.55;101175.22;18423803;32;20120;-58
2022/12/02 04:31:14;;;;;;;1.70;1.60;;;;;;;3.80;65.66;101177.03;18425305;32;20158;-58
2022/12/02 04:41:17;;;;;;;0.90;0.90;;;;;;;3.53;66.29;101185.47;18421487;32;20126;-59
2022/12/02 04:51:21;;;;;;;0.70;0.70;;;;;;;3.84;65.47;101178.88;18392512;32;20089;-59
2022/12/02 05:01:25;;;;;;;7.65;3.45;;;;;;;3.79;66.19;101175.22;18327669;32;20402;-58
2022/12/02 05:11:29;;;;;;;2.25;2.05;;;;;;;4.03;65.32;101185.59;18362881;32;20089;-58
2022/12/02 05:21:38;;;;;;;2.08;1.98;;;;;;;3.91;65.76;101185.16;18362384;32;20097;-58
2022/12/02 05:31:42;;;;;;;4.78;2.35;;;;;;;4.15;65.13;101185.19;18370307;32;20163;-58
2022/12/02 05:41:47;;;;;;;2.47;2.33;;;;;;;3.95;65.31;101197.38;18370796;32;20489;-58
2022/12/02 05:51:55;;;;;;;0.90;0.90;;;;;;;3.68;66.05;101188.63;18372240;32;20112;-58
2022/12/02 06:01:59;;;;;;;3.12;2.92;;;;;;;4.12;65.30;101191.12;18371015;32;20183;-58
2022/12/02 06:12:09;;;;;;;9.75;2.83;;;;;;;4.19;65.40;101201.69;18371192;32;20102;-58
2022/12/02 06:22:16;;;;;;;0.82;0.82;;;;;;;3.85;66.75;101199.63;18371217;32;20112;-59
2022/12/02 06:32:23;;;;;;;2.55;0.95;;;;;;;4.13;65.99;101203.25;18364748;32;20133;-59
2022/12/02 06:42:31;;;;;;;0.80;0.80;;;;;;;4.38;65.25;101222.22;18370331;32;20114;-58
2022/12/02 06:52:38;;;;;;;2.47;2.30;;;;;;;4.36;65.31;101220.41;18367952;32;20171;-59
2022/12/02 07:02:41;;;;;;;1.77;1.67;;;;;;;4.40;65.14;101220.56;18318633;32;20121;-58
2022/12/02 07:12:47;;;;;;;1.42;1.08;;;;;;;4.21;65.89;101223.28;18368876;32;20093;-58
2022/12/02 07:22:54;;;;;;;1.05;1.05;;;;;;;4.46;65.64;101226.78;18368228;32;20107;-59
2022/12/02 07:32:59;;;;;;;0.62;0.62;;;;;;;4.40;66.12;101242.97;18369264;32;20083;-58
2022/12/02 07:43:02;;;;;;;2.05;1.95;;;;;;;4.74;65.36;101244.16;18368245;32;20105;-58
2022/12/02 07:53:07;;;;;;;0.98;0.95;;;;;;;4.72;65.91;101248.41;18367136;32;20098;-58
2022/12/02 08:03:10;;;;;;;1.75;1.65;;;;;;;5.09;65.52;101247.09;18361428;32;20120;-57
2022/12/02 08:13:14;;;;;;;0.75;0.75;;;;;;;6.07;64.13;101246.75;18365325;32;20159;-58
2022/12/02 08:23:20;;;;;;;1.67;1.58;;;;;;;5.86;62.45;101247.81;18365150;32;20459;-58
2022/12/02 08:33:25;;;;;;;1.92;1.80;;;;;;;5.74;61.65;101252.62;18364982;32;20098;-58
2022/12/02 08:43:28;;;;;;;0.40;0.40;;;;;;;5.81;61.70;101260.63;18348784;32;20102;-58
2022/12/02 08:53:32;;;;;;;0.70;0.70;;;;;;;5.83;61.49;101258.09;18349854;32;20408;-58
2022/12/02 09:03:35;;;;;;;1.73;1.62;;;;;;;6.03;60.90;101255.28;18363780;32;20112;-58
2022/12/02 09:13:40;;;;;;;1.50;1.40;;;;;;;6.18;59.42;101258.34;18362905;32;20537;-58
2022/12/02 09:23:43;;;;;;;2.08;1.98;;;;;;;6.61;58.52;101262.97;18362521;32;20187;-58
2022/12/02 09:33:53;;;;;;;0.52;0.52;;;;;;;6.36;58.30;101255.38;18362962;32;20097;-58
2022/12/02 09:43:57;;;;;;;1.08;0.90;;;;;;;6.53;57.68;101255.84;18356150;32;20532;-58
2022/12/02 09:54:03;;;;;;;2.28;2.17;;;;;;;6.36;57.07;101251.94;18360487;32;20144;-58
2022/12/02 10:04:06;;;;;;;0.60;0.60;;;;;;;6.41;56.76;101245.16;18363216;32;20429;-58
2022/12/02 10:14:12;;;;;;;0.50;0.50;;;;;;;6.74;56.25;101244.34;18371151;32;20141;-58
2022/12/02 10:24:15;;;;;;;0.65;0.65;;;;;;;6.76;56.58;101236.56;18370888;32;20101;-58
2022/12/02 10:34:21;;;;;;;1.10;1.00;;;;;;;6.71;56.43;101248.56;18370622;32;20115;-58
2022/12/02 10:44:25;;;;;;;2.83;1.48;;;;;;;6.19;57.44;101239.34;18369166;32;20077;-58
2022/12/02 10:54:32;;;;;;;0.60;0.60;;;;;;;6.31;57.59;101230.16;18366104;32;20620;-58
2022/12/02 11:04:44;;;;;;;0.73;0.70;;;;;;;6.34;58.20;101225.94;18367676;32;20366;-58
2022/12/02 11:14:56;;;;;;;0.60;0.60;;;;;;;6.26;57.39;101222.25;18367520;32;20129;-58
2022/12/02 11:24:59;;;;;;;1.13;1.13;;;;;;;6.54;57.06;101215.25;18366540;32;20139;-59
2022/12/02 11:35:04;;;;;;;0.70;0.70;;;;;;;7.06;55.94;101202.75;18368060;32;20157;-58
2022/12/02 11:45:55;;;;;;;0.70;0.70;;;;;;;7.04;56.39;101198.38;18368955;32;20370;-58
2022/12/02 11:55:59;;;;;;;0.70;0.70;;;;;;;7.35;55.46;101199.09;18367449;32;20162;-58
2022/12/02 12:06:08;;;;;;;0.50;0.50;;;;;;;7.71;54.59;101190.41;18366979;32;20112;-58
2022/12/02 12:16:22;;;;;;;2.33;1.45;;;;;;;7.73;54.79;101186.16;18345250;32;20517;-58
2022/12/02 12:26:33;;;;;;;2.17;1.85;;;;;;;7.76;54.31;101194.00;18366454;32;20112;-58
2022/12/02 12:36:38;;;;;;;0.70;0.70;;;;;;;7.36;53.21;101191.38;18366577;32;20395;-58
2022/12/02 12:46:42;;;;;;;0.90;0.88;;;;;;;6.24;55.80;101191.06;18367429;32;20386;-58
2022/12/02 12:56:46;;;;;;;1.40;1.02;;;;;;;6.49;55.89;101196.06;18362808;32;20112;-58
2022/12/02 13:06:50;;;;;;;0.98;0.98;;;;;;;5.76;57.91;101189.66;18358026;32;20374;-58
2022/12/02 13:16:54;;;;;;;0.70;0.70;;;;;;;5.72;58.61;101198.16;18297832;32;20112;-58
2022/12/02 13:26:58;;;;;;;1.00;1.00;;;;;;;6.10;58.74;101201.06;18363219;32;20108;-58
2022/12/02 13:37:03;;;;;;;0.65;0.65;;;;;;;6.62;57.79;101211.16;18362909;32;20093;-58
2022/12/02 13:47:06;;;;;;;1.80;1.65;;;;;;;5.98;59.41;101203.25;18369408;32;20357;-58
2022/12/02 13:57:11;;;;;;;0.62;0.62;;;;;;;5.75;60.17;101207.75;18371191;32;20111;-58
2022/12/02 14:07:14;;;;;;;0.50;0.50;;;;;;;6.07;59.91;101215.63;18371121;32;20171;-58
2022/12/02 14:17:18;;;;;;;0.52;0.52;;;;;;;5.85;60.70;101224.47;18370751;32;20159;-58
2022/12/02 14:27:21;;;;;;;0.82;0.82;;;;;;;5.87;60.81;101228.84;18367586;32;20116;-58
2022/12/02 14:37:26;;;;;;;0.60;0.60;;;;;;;5.69;61.80;101230.06;18370928;32;20093;-58
2022/12/02 14:47:29;;;;;;;1.67;1.58;;;;;;;6.03;61.94;101229.34;18368725;32;20104;-59
2022/12/02 14:57:34;;;;;;;0.73;0.73;;;;;;;6.31;60.67;101227.56;18369657;32;20429;-58
2022/12/02 15:07:37;;;;;;;1.20;1.10;;;;;;;6.06;60.40;101240.69;18368667;32;20109;-58
2022/12/02 15:17:41;;;;;;;1.12;1.02;;;;;;;6.38;60.91;101242.47;18367819;32;20096;-58
2022/12/02 15:27:45;;;;;;;3.35;2.40;;;;;;;6.61;60.37;101252.59;18367335;32;20449;-58
2022/12/02 15:37:49;;;;;;;1.67;1.00;;;;;;;6.77;60.21;101260.00;18367593;32;20101;-58
2022/12/02 15:47:52;;;;;;;0.80;0.80;;;;;;;6.74;61.35;101272.88;18368142;32;20115;-58
2022/12/02 15:57:57;;;;;;;6.15;5.55;;;;;;;6.71;61.78;101270.19;18367927;32;20092;-58
2022/12/02 16:08:00;;;;;;;3.40;1.95;;;;;;;6.78;62.05;101272.13;18367994;32;20162;-58
2022/12/02 16:18:05;;;;;;;1.55;1.45;;;;;;;6.64;62.75;101276.94;18353273;32;20115;-58
2022/12/02 16:28:08;;;;;;;1.12;1.02;;;;;;;6.60;63.43;101279.41;18366863;32;20474;-58
2022/12/02 16:38:13;;;;;;;1.85;1.65;;;;;;;6.61;63.79;101286.34;18366069;32;20150;-58
2022/12/02 16:48:16;;;;;;;1.35;1.30;;;;;;;6.66;63.58;101297.75;18366096;32;20097;-58
2022/12/02 16:58:21;;;;;;;1.25;1.23;;;;;;;6.58;64.30;101301.81;18365056;32;20447;-58
2022/12/02 17:08:25;;;;;;;1.80;1.33;;;;;;;6.57;64.38;101300.94;18365444;32;20159;-58
2022/12/02 17:18:29;;;;;;;4.53;2.70;;;;;;;6.58;64.42;101307.00;18353372;32;20093;-58
2022/12/02 17:28:32;;;;;;;1.08;1.08;;;;;;;6.44;64.56;101312.66;18358977;32;20327;-58
2022/12/02 17:38:49;;;;;;;20.40;6.28;;;;;;;6.46;64.55;101329.19;18371648;32;20090;-58
2022/12/02 17:48:58;;;;;;;1.33;1.30;;;;;;;6.39;64.95;101328.09;18372049;32;20116;-58
2022/12/02 17:59:03;;;;;;;2.72;2.53;;;;;;;6.35;65.58;101331.44;18371538;32;20085;-58
2022/12/02 18:09:06;;;;;;;0.70;0.70;;;;;;;6.35;65.58;101334.03;18371467;32;20081;-58
2022/12/02 18:19:11;;;;;;;0.80;0.80;;;;;;;6.19;65.95;101334.38;18357399;32;20102;-58
2022/12/02 18:29:15;;;;;;;0.50;0.50;;;;;;;6.22;65.71;101330.19;18356907;32;20771;-58
2022/12/02 18:39:19;;;;;;;3.67;1.35;;;;;;;6.22;65.55;101335.37;18371070;32;20476;-58
2022/12/02 18:49:23;;;;;;;2.37;2.28;;;;;;;6.15;65.84;101328.22;18371770;32;20097;-58
2022/12/02 18:59:28;;;;;;;0.95;0.93;;;;;;;6.23;65.62;101334.53;18369905;32;20094;-58
2022/12/02 19:09:32;;;;;;;2.37;2.17;;;;;;;6.17;65.88;101336.94;18353462;32;20164;-59
2022/12/02 19:19:37;;;;;;;2.00;1.87;;;;;;;6.21;65.94;101328.41;18342267;32;20085;-58
2022/12/02 19:29:41;;;;;;;1.80;1.70;;;;;;;6.26;66.08;101331.16;18360878;32;20093;-58
2022/12/02 19:39:46;;;;;;;6.20;4.85;;;;;;;6.21;66.48;101332.72;18352802;32;20093;-58
2022/12/02 19:49:50;;;;;;;0.62;0.62;;;;;;;6.19;66.42;101334.38;18370216;32;20097;-58
2022/12/02 19:59:54;;;;;;;5.57;2.65;;;;;;;6.20;66.04;101342.22;18354863;32;20485;-58
2022/12/02 20:09:58;;;;;;;0.77;0.77;;;;;;;6.20;66.18;101347.41;18353793;32;20094;-58
2022/12/02 20:20:03;;;;;;;0.70;0.70;;;;;;;6.12;66.49;101333.31;18349190;32;20472;-58
2022/12/02 20:30:08;;;;;;;0.90;0.90;;;;;;;6.23;65.99;101337.12;18360135;32;20104;-58
2022/12/02 20:40:14;;;;;;;0.88;0.88;;;;;;;6.21;66.05;101332.72;18365283;32;20100;-59
2022/12/02 20:50:18;;;;;;;1.42;1.37;;;;;;;6.17;66.08;101344.72;18366536;32;20434;-58
2022/12/02 21:00:22;;;;;;;3.60;3.25;;;;;;;6.19;66.03;101355.13;18351016;32;20115;-58
2022/12/02 21:10:26;;;;;;;5.12;1.83;;;;;;;6.06;66.49;101361.63;18360036;32;20090;-58
2022/12/02 21:20:33;;;;;;;1.98;1.75;;;;;;;6.16;66.39;101375.78;18361212;32;20090;-58
2022/12/02 21:30:37;;;;;;;3.58;2.40;;;;;;;6.24;66.08;101384.69;18350156;32;20097;-58
2022/12/02 21:40:42;;;;;;;1.45;1.23;;;;;;;6.15;66.33;101393.03;18362553;32;20090;-58
2022/12/02 21:50:45;;;;;;;0.80;0.80;;;;;;;6.09;66.21;101391.12;18362682;32;20761;-58
2022/12/02 22:01:36;;;;;;;0.50;0.50;;;;;;;6.17;66.07;101398.28;18363691;32;20117;-58
2022/12/02 22:11:13;;;;;;;1.75;1.65;;;;;;;6.20;65.85;101393.19;18356460;32;20141;-58
2022/12/02 22:21:17;;;;;;;2.42;2.20;;;;;;;6.12;66.26;101390.34;18369272;32;20125;-58
2022/12/02 22:31:20;;;;;;;1.62;1.52;;;;;;;6.14;66.44;101388.69;18367301;32;20145;-58
2022/12/02 22:41:25;;;;;;;1.33;1.25;;;;;;;6.11;66.34;101381.69;18369373;32;20108;-58
2022/12/02 22:51:28;;;;;;;1.35;1.02;;;;;;;6.03;66.57;101371.91;18371630;32;20108;-58
2022/12/02 23:01:38;;;;;;;0.73;0.73;;;;;;;6.05;66.61;101372.84;18370201;32;20112;-58
2022/12/02 23:11:42;;;;;;;0.70;0.70;;;;;;;6.08;66.49;101372.97;18370310;32;20116;-58
2022/12/02 23:21:46;;;;;;;0.55;0.55;;;;;;;6.03;66.57;101384.88;18369542;32;20093;-58
2022/12/02 23:31:49;;;;;;;3.62;2.00;;;;;;;5.92;66.68;101379.31;18369744;32;20142;-58
2022/12/02 23:41:54;;;;;;;2.83;1.35;;;;;;;5.78;66.96;101384.91;18369121;32;20155;-58
2022/12/02 23:51:57;;;;;;;1.05;1.05;;;;;;;5.95;66.48;101382.00;18369144;32;20441;-58
